Crooked River, Oregon
Current Conditions -  °F | °C
As of 9:56 PM on Thursday 18 Dec 2014 (Local Time) from KRDM Reporting Station
Few Clouds Few Clouds  
Wind Chill: 38°   Ceiling: Unl
Heat Index: 44°   Visibility: 10mi
Dew Point: 33°   Wind: 12mph
Humidity: 65%   Direction: 150°SSE
Pressure: 29.87"   Gusts: NA
Location:  44.3536°N, 121.195°W
Report Text: KRDM 190556Z AUTO 15010KT 10SM FEW055 07/01 A2987 RMK AO2 SLP123 60000 T00670006 10078 20056 58005
Loading
Personal Weather Stations






























Interactive Weather Map New forecast layout! Learn more

10-Day Weather Forecast

Advertisements
Track Severe Weather on mobile